sensor_id;sensor_type;location;lat;lon;timestamp;pressure;altitude;pressure_sealevel;temperature;humidity
77603;BME280;66771;52.434;17.056;2023-04-08T00:00:26;101031.00;;;3.44;91.67
77603;BME280;66771;52.434;17.056;2023-04-08T00:03:13;101027.09;;;3.44;91.90
77603;BME280;66771;52.434;17.056;2023-04-08T00:05:39;101029.50;;;3.41;91.91
77603;BME280;66771;52.434;17.056;2023-04-08T00:08:06;101033.13;;;3.39;91.85
77603;BME280;66771;52.434;17.056;2023-04-08T00:10:33;101045.29;;;3.38;92.14
77603;BME280;66771;52.434;17.056;2023-04-08T00:13:00;101056.08;;;3.44;92.67
77603;BME280;66771;52.434;17.056;2023-04-08T00:15:27;101046.95;;;3.54;92.72
77603;BME280;66771;52.434;17.056;2023-04-08T00:17:54;101049.83;;;3.61;92.80
77603;BME280;66771;52.434;17.056;2023-04-08T00:20:22;101059.71;;;3.59;92.47
77603;BME280;66771;52.434;17.056;2023-04-08T00:22:49;101062.81;;;3.57;92.35
77603;BME280;66771;52.434;17.056;2023-04-08T00:25:16;101064.31;;;3.60;92.36
77603;BME280;66771;52.434;17.056;2023-04-08T00:27:43;101065.58;;;3.63;92.65
77603;BME280;66771;52.434;17.056;2023-04-08T00:30:10;101068.14;;;3.61;92.30
77603;BME280;66771;52.434;17.056;2023-04-08T00:32:37;101064.44;;;3.61;92.33
77603;BME280;66771;52.434;17.056;2023-04-08T00:35:04;101065.83;;;3.61;92.38
77603;BME280;66771;52.434;17.056;2023-04-08T00:37:31;101068.25;;;3.59;92.28
77603;BME280;66771;52.434;17.056;2023-04-08T00:39:58;101041.23;;;3.41;92.42
77603;BME280;66771;52.434;17.056;2023-04-08T00:42:25;101064.84;;;3.51;92.21
77603;BME280;66771;52.434;17.056;2023-04-08T00:44:51;101064.96;;;3.48;92.28
77603;BME280;66771;52.434;17.056;2023-04-08T00:47:18;101066.77;;;3.43;92.09
77603;BME280;66771;52.434;17.056;2023-04-08T00:49:46;101071.96;;;3.38;91.95
77603;BME280;66771;52.434;17.056;2023-04-08T00:52:13;101074.35;;;3.36;92.03
77603;BME280;66771;52.434;17.056;2023-04-08T00:54:40;101073.79;;;3.33;92.13
77603;BME280;66771;52.434;17.056;2023-04-08T00:57:08;101071.42;;;3.30;92.06
77603;BME280;66771;52.434;17.056;2023-04-08T00:59:34;101071.86;;;3.23;91.88
77603;BME280;66771;52.434;17.056;2023-04-08T01:02:06;101072.77;;;3.18;91.92
77603;BME280;66771;52.434;17.056;2023-04-08T01:04:59;101081.33;;;3.08;91.83
77603;BME280;66771;52.434;17.056;2023-04-08T01:07:31;101079.91;;;2.99;91.85
77603;BME280;66771;52.434;17.056;2023-04-08T01:10:02;101081.19;;;2.94;91.87
77603;BME280;66771;52.434;17.056;2023-04-08T01:12:32;101079.99;;;2.88;91.79
77603;BME280;66771;52.434;17.056;2023-04-08T01:15:04;101087.52;;;2.82;91.74
77603;BME280;66771;52.434;17.056;2023-04-08T01:17:33;101093.53;;;2.78;91.90
77603;BME280;66771;52.434;17.056;2023-04-08T01:20:04;101094.02;;;2.74;91.91
77603;BME280;66771;52.434;17.056;2023-04-08T01:25:35;101103.60;;;2.65;92.01
77603;BME280;66771;52.434;17.056;2023-04-08T01:28:12;101105.04;;;2.60;92.04
77603;BME280;66771;52.434;17.056;2023-04-08T01:30:42;101104.89;;;2.54;92.17
77603;BME280;66771;52.434;17.056;2023-04-08T01:33:11;101105.20;;;2.50;92.18
77603;BME280;66771;52.434;17.056;2023-04-08T01:35:39;101107.77;;;2.48;92.15
77603;BME280;66771;52.434;17.056;2023-04-08T01:38:06;101109.33;;;2.45;92.16
77603;BME280;66771;52.434;17.056;2023-04-08T01:40:34;101110.64;;;2.43;92.24
77603;BME280;66771;52.434;17.056;2023-04-08T01:43:06;101108.98;;;2.39;92.20
77603;BME280;66771;52.434;17.056;2023-04-08T01:45:34;101116.56;;;2.36;92.14
77603;BME280;66771;52.434;17.056;2023-04-08T01:48:01;101115.95;;;2.33;92.23
77603;BME280;66771;52.434;17.056;2023-04-08T01:50:30;101119.16;;;2.28;91.92
77603;BME280;66771;52.434;17.056;2023-04-08T01:52:59;101121.33;;;2.22;92.01
77603;BME280;66771;52.434;17.056;2023-04-08T01:55:26;101119.05;;;2.16;92.06
77603;BME280;66771;52.434;17.056;2023-04-08T01:57:55;101113.95;;;2.09;92.26
77603;BME280;66771;52.434;17.056;2023-04-08T02:00:29;101128.67;;;2.14;92.27
77603;BME280;66771;52.434;17.056;2023-04-08T02:02:58;101132.34;;;2.11;92.30
77603;BME280;66771;52.434;17.056;2023-04-08T02:05:26;101134.19;;;2.09;92.26
77603;BME280;66771;52.434;17.056;2023-04-08T02:07:53;101139.91;;;2.08;92.36
77603;BME280;66771;52.434;17.056;2023-04-08T02:10:20;101145.12;;;2.11;92.52
77603;BME280;66771;52.434;17.056;2023-04-08T02:12:48;101144.94;;;2.11;92.45
77603;BME280;66771;52.434;17.056;2023-04-08T02:15:15;101147.33;;;2.09;92.44
77603;BME280;66771;52.434;17.056;2023-04-08T02:17:44;101153.40;;;2.08;92.61
77603;BME280;66771;52.434;17.056;2023-04-08T02:20:22;101157.23;;;2.05;92.61
77603;BME280;66771;52.434;17.056;2023-04-08T02:23:22;101154.63;;;2.03;92.62
77603;BME280;66771;52.434;17.056;2023-04-08T02:25:52;101154.73;;;2.00;92.51
77603;BME280;66771;52.434;17.056;2023-04-08T02:28:21;101159.58;;;1.98;92.49
77603;BME280;66771;52.434;17.056;2023-04-08T02:30:50;101162.08;;;1.98;92.50
77603;BME280;66771;52.434;17.056;2023-04-08T02:33:20;101164.65;;;1.95;92.45
77603;BME280;66771;52.434;17.056;2023-04-08T02:35:49;101168.52;;;1.91;92.39
77603;BME280;66771;52.434;17.056;2023-04-08T02:38:16;101171.74;;;1.90;92.40
77603;BME280;66771;52.434;17.056;2023-04-08T02:40:43;101179.89;;;1.91;92.56
77603;BME280;66771;52.434;17.056;2023-04-08T02:43:10;101184.20;;;1.90;92.46
77603;BME280;66771;52.434;17.056;2023-04-08T02:45:43;101174.66;;;1.77;92.23
77603;BME280;66771;52.434;17.056;2023-04-08T02:48:10;101194.23;;;1.80;92.35
77603;BME280;66771;52.434;17.056;2023-04-08T02:50:36;101196.48;;;1.77;92.43
77603;BME280;66771;52.434;17.056;2023-04-08T02:53:04;101198.36;;;1.74;92.33
77603;BME280;66771;52.434;17.056;2023-04-08T02:55:32;101206.04;;;1.72;92.33
77603;BME280;66771;52.434;17.056;2023-04-08T02:57:59;101208.38;;;1.71;92.40
77603;BME280;66771;52.434;17.056;2023-04-08T03:00:25;101209.61;;;1.66;92.05
77603;BME280;66771;52.434;17.056;2023-04-08T03:02:52;101212.54;;;1.63;92.37
77603;BME280;66771;52.434;17.056;2023-04-08T03:05:19;101213.52;;;1.60;92.30
77603;BME280;66771;52.434;17.056;2023-04-08T03:07:47;101217.41;;;1.55;92.32
77603;BME280;66771;52.434;17.056;2023-04-08T03:10:14;101220.65;;;1.47;92.32
77603;BME280;66771;52.434;17.056;2023-04-08T03:12:41;101222.11;;;1.46;92.45
77603;BME280;66771;52.434;17.056;2023-04-08T03:15:08;101222.86;;;1.45;92.49
77603;BME280;66771;52.434;17.056;2023-04-08T03:17:35;101225.44;;;1.41;92.37
77603;BME280;66771;52.434;17.056;2023-04-08T03:20:02;101227.75;;;1.41;92.38
77603;BME280;66771;52.434;17.056;2023-04-08T03:22:30;101226.61;;;1.38;92.47
77603;BME280;66771;52.434;17.056;2023-04-08T03:24:57;101229.52;;;1.35;92.54
77603;BME280;66771;52.434;17.056;2023-04-08T03:27:24;101229.10;;;1.37;92.81
77603;BME280;66771;52.434;17.056;2023-04-08T03:29:51;101229.53;;;1.41;92.83
77603;BME280;66771;52.434;17.056;2023-04-08T03:32:18;101234.30;;;1.42;92.96
77603;BME280;66771;52.434;17.056;2023-04-08T03:34:45;101228.27;;;1.42;93.00
77603;BME280;66771;52.434;17.056;2023-04-08T03:37:12;101225.70;;;1.45;93.16
77603;BME280;66771;52.434;17.056;2023-04-08T03:39:38;101226.73;;;1.46;92.89
77603;BME280;66771;52.434;17.056;2023-04-08T03:42:05;101227.30;;;1.38;92.34
77603;BME280;66771;52.434;17.056;2023-04-08T03:44:32;101231.57;;;1.26;91.91
77603;BME280;66771;52.434;17.056;2023-04-08T03:46:59;101236.14;;;1.15;91.75
77603;BME280;66771;52.434;17.056;2023-04-08T03:49:25;101242.88;;;1.09;91.92
77603;BME280;66771;52.434;17.056;2023-04-08T03:51:52;101245.66;;;1.11;92.38
77603;BME280;66771;52.434;17.056;2023-04-08T03:54:18;101244.85;;;1.02;92.22
77603;BME280;66771;52.434;17.056;2023-04-08T03:56:45;101246.13;;;1.00;92.40
77603;BME280;66771;52.434;17.056;2023-04-08T03:59:12;101250.30;;;0.97;92.25
77603;BME280;66771;52.434;17.056;2023-04-08T04:01:39;101251.85;;;0.92;92.35
77603;BME280;66771;52.434;17.056;2023-04-08T04:04:05;101253.61;;;0.86;92.15
77603;BME280;66771;52.434;17.056;2023-04-08T04:06:32;101250.91;;;0.81;92.28
77603;BME280;66771;52.434;17.056;2023-04-08T04:08:59;101252.67;;;0.75;91.92
77603;BME280;66771;52.434;17.056;2023-04-08T04:11:25;101253.77;;;0.60;91.59
77603;BME280;66771;52.434;17.056;2023-04-08T04:13:52;101255.80;;;0.51;91.83
77603;BME280;66771;52.434;17.056;2023-04-08T04:16:19;101256.95;;;0.48;92.20
77603;BME280;66771;52.434;17.056;2023-04-08T04:18:46;101258.80;;;0.44;92.32
77603;BME280;66771;52.434;17.056;2023-04-08T04:21:12;101262.39;;;0.42;92.36
77603;BME280;66771;52.434;17.056;2023-04-08T04:23:39;101265.45;;;0.33;91.77
77603;BME280;66771;52.434;17.056;2023-04-08T04:26:09;101269.52;;;0.26;91.92
77603;BME280;66771;52.434;17.056;2023-04-08T04:28:37;101271.36;;;0.30;92.55
77603;BME280;66771;52.434;17.056;2023-04-08T04:31:04;101275.45;;;0.29;92.39
77603;BME280;66771;52.434;17.056;2023-04-08T04:33:30;101279.00;;;0.29;92.55
77603;BME280;66771;52.434;17.056;2023-04-08T04:35:57;101282.33;;;0.24;92.48
77603;BME280;66771;52.434;17.056;2023-04-08T04:38:24;101281.80;;;0.16;92.20
77603;BME280;66771;52.434;17.056;2023-04-08T04:40:52;101282.96;;;0.12;92.04
77603;BME280;66771;52.434;17.056;2023-04-08T04:43:19;101279.98;;;0.11;92.07
77603;BME280;66771;52.434;17.056;2023-04-08T04:45:45;101283.33;;;0.12;91.89
77603;BME280;66771;52.434;17.056;2023-04-08T04:48:12;101287.62;;;0.09;91.77
77603;BME280;66771;52.434;17.056;2023-04-08T04:50:39;101287.94;;;0.18;92.15
77603;BME280;66771;52.434;17.056;2023-04-08T04:53:06;101292.69;;;0.34;92.60
77603;BME280;66771;52.434;17.056;2023-04-08T04:55:32;101297.76;;;0.44;92.56
77603;BME280;66771;52.434;17.056;2023-04-08T04:57:59;101305.90;;;0.51;92.31
77603;BME280;66771;52.434;17.056;2023-04-08T05:00:26;101305.17;;;0.59;92.38
77603;BME280;66771;52.434;17.056;2023-04-08T05:02:52;101307.54;;;0.71;92.60
77603;BME280;66771;52.434;17.056;2023-04-08T05:05:19;101303.95;;;0.79;92.40
77603;BME280;66771;52.434;17.056;2023-04-08T05:07:45;101308.80;;;0.90;92.48
77603;BME280;66771;52.434;17.056;2023-04-08T05:10:12;101315.09;;;0.99;92.40
77603;BME280;66771;52.434;17.056;2023-04-08T05:12:39;101314.90;;;1.13;92.53
77603;BME280;66771;52.434;17.056;2023-04-08T05:15:06;101319.34;;;1.25;92.44
77603;BME280;66771;52.434;17.056;2023-04-08T05:17:33;101321.64;;;1.38;92.42
77603;BME280;66771;52.434;17.056;2023-04-08T05:20:00;101320.01;;;1.51;92.44
77603;BME280;66771;52.434;17.056;2023-04-08T05:22:26;101321.17;;;1.66;92.56
77603;BME280;66771;52.434;17.056;2023-04-08T05:24:53;101325.08;;;1.78;92.38
77603;BME280;66771;52.434;17.056;2023-04-08T05:27:20;101320.80;;;1.91;92.27
77603;BME280;66771;52.434;17.056;2023-04-08T05:29:47;101323.96;;;2.04;92.33
77603;BME280;66771;52.434;17.056;2023-04-08T05:32:14;101325.30;;;2.17;92.36
77603;BME280;66771;52.434;17.056;2023-04-08T05:34:43;101324.66;;;2.31;92.52
77603;BME280;66771;52.434;17.056;2023-04-08T05:37:10;101325.21;;;2.47;92.50
77603;BME280;66771;52.434;17.056;2023-04-08T05:39:37;101328.46;;;2.61;92.46
77603;BME280;66771;52.434;17.056;2023-04-08T05:42:03;101325.10;;;2.72;92.15
77603;BME280;66771;52.434;17.056;2023-04-08T05:44:30;101305.05;;;2.72;92.22
77603;BME280;66771;52.434;17.056;2023-04-08T05:46:57;101331.05;;;2.95;92.11
77603;BME280;66771;52.434;17.056;2023-04-08T05:49:23;101333.08;;;3.04;92.12
77603;BME280;66771;52.434;17.056;2023-04-08T05:51:50;101339.23;;;3.10;92.07
77603;BME280;66771;52.434;17.056;2023-04-08T05:54:17;101338.09;;;3.17;92.09
77603;BME280;66771;52.434;17.056;2023-04-08T05:56:43;101337.98;;;3.26;91.90
77603;BME280;66771;52.434;17.056;2023-04-08T05:59:11;101344.35;;;3.36;92.27
77603;BME280;66771;52.434;17.056;2023-04-08T06:01:38;101347.45;;;3.49;92.25
77603;BME280;66771;52.434;17.056;2023-04-08T06:04:04;101354.52;;;3.60;92.00
77603;BME280;66771;52.434;17.056;2023-04-08T06:06:31;101355.08;;;3.69;91.88
77603;BME280;66771;52.434;17.056;2023-04-08T06:08:58;101359.80;;;3.76;91.73
77603;BME280;66771;52.434;17.056;2023-04-08T06:11:24;101360.98;;;3.83;91.65
77603;BME280;66771;52.434;17.056;2023-04-08T06:13:51;101366.04;;;3.85;91.43
77603;BME280;66771;52.434;17.056;2023-04-08T06:16:18;101368.13;;;3.91;91.64
77603;BME280;66771;52.434;17.056;2023-04-08T06:18:45;101370.23;;;4.01;91.53
77603;BME280;66771;52.434;17.056;2023-04-08T06:21:11;101375.68;;;4.08;91.52
77603;BME280;66771;52.434;17.056;2023-04-08T06:23:38;101374.55;;;4.19;91.77
77603;BME280;66771;52.434;17.056;2023-04-08T06:26:05;101377.98;;;4.26;91.55
77603;BME280;66771;52.434;17.056;2023-04-08T06:28:31;101381.07;;;4.34;91.25
77603;BME280;66771;52.434;17.056;2023-04-08T06:30:58;101385.41;;;4.41;91.15
77603;BME280;66771;52.434;17.056;2023-04-08T06:33:25;101390.95;;;4.50;91.27
77603;BME280;66771;52.434;17.056;2023-04-08T06:36:00;101394.31;;;4.59;91.41
77603;BME280;66771;52.434;17.056;2023-04-08T06:38:28;101397.39;;;4.67;91.25
77603;BME280;66771;52.434;17.056;2023-04-08T06:40:55;101397.23;;;4.70;91.17
77603;BME280;66771;52.434;17.056;2023-04-08T06:43:22;101395.80;;;4.75;90.98
77603;BME280;66771;52.434;17.056;2023-04-08T06:45:48;101403.81;;;4.84;90.87
77603;BME280;66771;52.434;17.056;2023-04-08T06:48:15;101406.88;;;4.92;90.82
77603;BME280;66771;52.434;17.056;2023-04-08T06:50:42;101404.81;;;4.98;90.63
77603;BME280;66771;52.434;17.056;2023-04-08T06:53:09;101403.71;;;5.08;90.51
77603;BME280;66771;52.434;17.056;2023-04-08T06:55:36;101406.56;;;5.12;90.14
77603;BME280;66771;52.434;17.056;2023-04-08T06:58:03;101413.33;;;5.12;90.25
77603;BME280;66771;52.434;17.056;2023-04-08T07:00:29;101415.88;;;5.15;89.96
77603;BME280;66771;52.434;17.056;2023-04-08T07:02:56;101417.14;;;5.07;89.55
77603;BME280;66771;52.434;17.056;2023-04-08T07:05:22;101425.27;;;5.04;90.01
77603;BME280;66771;52.434;17.056;2023-04-08T07:07:49;101428.33;;;5.03;90.36
77603;BME280;66771;52.434;17.056;2023-04-08T07:10:16;101428.86;;;5.12;90.40
77603;BME280;66771;52.434;17.056;2023-04-08T07:12:42;101430.06;;;5.21;90.19
77603;BME280;66771;52.434;17.056;2023-04-08T07:15:09;101432.93;;;5.34;90.37
77603;BME280;66771;52.434;17.056;2023-04-08T07:17:36;101433.14;;;5.33;89.20
77603;BME280;66771;52.434;17.056;2023-04-08T07:20:04;101438.23;;;5.27;89.31
77603;BME280;66771;52.434;17.056;2023-04-08T07:22:31;101435.59;;;5.26;89.02
77603;BME280;66771;52.434;17.056;2023-04-08T07:24:57;101433.42;;;5.31;89.62
77603;BME280;66771;52.434;17.056;2023-04-08T07:27:24;101438.86;;;5.33;89.68
77603;BME280;66771;52.434;17.056;2023-04-08T07:29:52;101439.07;;;5.36;89.08
77603;BME280;66771;52.434;17.056;2023-04-08T07:32:19;101441.70;;;5.45;89.84
77603;BME280;66771;52.434;17.056;2023-04-08T07:34:46;101440.16;;;5.60;90.03
77603;BME280;66771;52.434;17.056;2023-04-08T07:37:13;101441.98;;;5.67;89.46
77603;BME280;66771;52.434;17.056;2023-04-08T07:39:39;101447.11;;;5.73;89.06
77603;BME280;66771;52.434;17.056;2023-04-08T07:42:06;101450.02;;;5.75;87.72
77603;BME280;66771;52.434;17.056;2023-04-08T07:44:32;101453.77;;;5.72;87.82
77603;BME280;66771;52.434;17.056;2023-04-08T07:46:59;101452.73;;;5.67;86.60
77603;BME280;66771;52.434;17.056;2023-04-08T07:49:25;101457.25;;;5.66;86.97
77603;BME280;66771;52.434;17.056;2023-04-08T07:51:53;101455.95;;;5.63;88.04
77603;BME280;66771;52.434;17.056;2023-04-08T07:54:20;101463.29;;;5.70;88.80
77603;BME280;66771;52.434;17.056;2023-04-08T07:56:46;101464.48;;;5.84;89.03
77603;BME280;66771;52.434;17.056;2023-04-08T07:59:13;101466.52;;;5.99;87.48
77603;BME280;66771;52.434;17.056;2023-04-08T08:01:40;101471.48;;;6.04;87.36
77603;BME280;66771;52.434;17.056;2023-04-08T08:04:06;101474.13;;;6.09;88.10
77603;BME280;66771;52.434;17.056;2023-04-08T08:06:33;101472.35;;;6.16;87.60
77603;BME280;66771;52.434;17.056;2023-04-08T08:09:00;101468.13;;;6.18;88.19
77603;BME280;66771;52.434;17.056;2023-04-08T08:11:27;101483.73;;;6.33;87.44
77603;BME280;66771;52.434;17.056;2023-04-08T08:13:54;101484.80;;;6.37;86.51
77603;BME280;66771;52.434;17.056;2023-04-08T08:16:21;101486.94;;;6.37;86.45
77603;BME280;66771;52.434;17.056;2023-04-08T08:18:47;101489.42;;;6.37;87.05
77603;BME280;66771;52.434;17.056;2023-04-08T08:21:14;101488.43;;;6.43;87.45
77603;BME280;66771;52.434;17.056;2023-04-08T08:23:41;101492.06;;;6.46;87.06
77603;BME280;66771;52.434;17.056;2023-04-08T08:26:09;101495.14;;;6.49;87.46
77603;BME280;66771;52.434;17.056;2023-04-08T08:28:37;101495.04;;;6.51;86.81
77603;BME280;66771;52.434;17.056;2023-04-08T08:31:04;101501.95;;;6.49;86.86
77603;BME280;66771;52.434;17.056;2023-04-08T08:33:31;101500.10;;;6.50;86.83
77603;BME280;66771;52.434;17.056;2023-04-08T08:35:59;101502.20;;;6.43;86.74
77603;BME280;66771;52.434;17.056;2023-04-08T08:38:26;101500.54;;;6.41;86.21
77603;BME280;66771;52.434;17.056;2023-04-08T08:40:54;101502.84;;;6.45;87.07
77603;BME280;66771;52.434;17.056;2023-04-08T08:43:22;101503.89;;;6.53;86.08
77603;BME280;66771;52.434;17.056;2023-04-08T08:45:49;101502.06;;;6.65;86.90
77603;BME280;66771;52.434;17.056;2023-04-08T08:48:16;101499.86;;;6.77;86.73
77603;BME280;66771;52.434;17.056;2023-04-08T08:50:43;101499.89;;;6.81;86.29
77603;BME280;66771;52.434;17.056;2023-04-08T08:53:10;101503.49;;;6.88;86.87
77603;BME280;66771;52.434;17.056;2023-04-08T08:55:37;101506.88;;;6.92;86.49
77603;BME280;66771;52.434;17.056;2023-04-08T08:58:05;101504.58;;;6.95;86.02
77603;BME280;66771;52.434;17.056;2023-04-08T09:00:34;101510.38;;;6.93;85.50
77603;BME280;66771;52.434;17.056;2023-04-08T09:05:54;101511.30;;;7.19;85.39
77603;BME280;66771;52.434;17.056;2023-04-08T09:10:54;101515.81;;;7.50;85.43
77603;BME280;66771;52.434;17.056;2023-04-08T09:13:22;101515.78;;;7.72;84.59
77603;BME280;66771;52.434;17.056;2023-04-08T09:16:00;101510.54;;;7.93;83.08
77603;BME280;66771;52.434;17.056;2023-04-08T09:18:29;101510.71;;;8.07;81.55
77603;BME280;66771;52.434;17.056;2023-04-08T09:20:59;101511.49;;;8.13;82.65
77603;BME280;66771;52.434;17.056;2023-04-08T09:23:45;101513.04;;;8.20;82.39
77603;BME280;66771;52.434;17.056;2023-04-08T09:26:17;101504.02;;;8.25;81.74
77603;BME280;66771;52.434;17.056;2023-04-08T09:31:26;101513.97;;;8.44;81.79
77603;BME280;66771;52.434;17.056;2023-04-08T09:33:58;101517.23;;;8.47;82.11
77603;BME280;66771;52.434;17.056;2023-04-08T09:36:25;101518.30;;;8.56;81.23
77603;BME280;66771;52.434;17.056;2023-04-08T09:38:53;101519.30;;;8.74;81.49
77603;BME280;66771;52.434;17.056;2023-04-08T09:41:21;101516.27;;;9.15;80.87
77603;BME280;66771;52.434;17.056;2023-04-08T09:43:50;101518.09;;;9.70;79.58
77603;BME280;66771;52.434;17.056;2023-04-08T09:46:31;101517.36;;;9.85;79.79
77603;BME280;66771;52.434;17.056;2023-04-08T09:49:11;101521.19;;;10.01;77.81
77603;BME280;66771;52.434;17.056;2023-04-08T09:51:48;101521.72;;;9.87;76.83
77603;BME280;66771;52.434;17.056;2023-04-08T09:54:18;101520.11;;;9.69;75.97
77603;BME280;66771;52.434;17.056;2023-04-08T09:56:53;101523.48;;;9.45;75.47
77603;BME280;66771;52.434;17.056;2023-04-08T09:59:26;101522.01;;;9.21;77.14
77603;BME280;66771;52.434;17.056;2023-04-08T10:01:58;101522.94;;;9.39;76.61
77603;BME280;66771;52.434;17.056;2023-04-08T10:04:27;101520.88;;;9.50;77.30
77603;BME280;66771;52.434;17.056;2023-04-08T10:06:57;101519.19;;;9.70;75.72
77603;BME280;66771;52.434;17.056;2023-04-08T10:09:29;101514.65;;;9.76;72.51
77603;BME280;66771;52.434;17.056;2023-04-08T10:11:56;101521.89;;;9.75;70.81
77603;BME280;66771;52.434;17.056;2023-04-08T10:14:23;101520.98;;;9.42;73.12
77603;BME280;66771;52.434;17.056;2023-04-08T10:17:23;101521.14;;;9.33;72.59
77603;BME280;66771;52.434;17.056;2023-04-08T10:19:52;101522.10;;;9.38;72.31
77603;BME280;66771;52.434;17.056;2023-04-08T10:28:00;101528.80;;;9.89;71.93
77603;BME280;66771;52.434;17.056;2023-04-08T10:32:54;101525.44;;;10.26;71.06
77603;BME280;66771;52.434;17.056;2023-04-08T10:35:31;101525.66;;;10.35;70.09
77603;BME280;66771;52.434;17.056;2023-04-08T10:37:58;101520.67;;;10.45;70.82
77603;BME280;66771;52.434;17.056;2023-04-08T10:40:25;101526.30;;;10.56;69.87
77603;BME280;66771;52.434;17.056;2023-04-08T10:42:55;101525.23;;;10.47;69.98
77603;BME280;66771;52.434;17.056;2023-04-08T10:45:23;101515.51;;;10.38;67.83
77603;BME280;66771;52.434;17.056;2023-04-08T10:47:50;101521.91;;;10.31;70.41
77603;BME280;66771;52.434;17.056;2023-04-08T10:50:18;101518.26;;;10.35;65.09
77603;BME280;66771;52.434;17.056;2023-04-08T10:52:50;101518.55;;;10.39;66.93
77603;BME280;66771;52.434;17.056;2023-04-08T10:55:24;101515.42;;;10.34;66.75
77603;BME280;66771;52.434;17.056;2023-04-08T10:57:53;101519.31;;;10.41;65.65
77603;BME280;66771;52.434;17.056;2023-04-08T11:00:42;101516.85;;;10.43;66.06
77603;BME280;66771;52.434;17.056;2023-04-08T11:03:10;101524.05;;;10.40;65.58
77603;BME280;66771;52.434;17.056;2023-04-08T11:05:37;101526.26;;;10.39;63.46
77603;BME280;66771;52.434;17.056;2023-04-08T11:08:04;101523.27;;;10.30;63.04
77603;BME280;66771;52.434;17.056;2023-04-08T11:10:36;101518.64;;;10.32;63.30
77603;BME280;66771;52.434;17.056;2023-04-08T11:13:07;101517.13;;;10.45;65.20
77603;BME280;66771;52.434;17.056;2023-04-08T11:15:35;101521.60;;;10.42;65.29
77603;BME280;66771;52.434;17.056;2023-04-08T11:18:04;101519.11;;;10.41;65.80
77603;BME280;66771;52.434;17.056;2023-04-08T11:20:32;101520.52;;;10.37;66.39
77603;BME280;66771;52.434;17.056;2023-04-08T11:23:01;101516.77;;;10.41;65.67
77603;BME280;66771;52.434;17.056;2023-04-08T11:25:29;101516.25;;;10.44;63.73
77603;BME280;66771;52.434;17.056;2023-04-08T11:27:56;101515.25;;;10.46;65.59
77603;BME280;66771;52.434;17.056;2023-04-08T11:30:23;101517.69;;;10.61;65.18
77603;BME280;66771;52.434;17.056;2023-04-08T11:32:50;101522.11;;;10.74;65.60
77603;BME280;66771;52.434;17.056;2023-04-08T11:35:17;101518.26;;;11.05;63.34
77603;BME280;66771;52.434;17.056;2023-04-08T11:37:44;101519.86;;;11.06;61.84
77603;BME280;66771;52.434;17.056;2023-04-08T11:40:19;101521.70;;;10.97;61.15
77603;BME280;66771;52.434;17.056;2023-04-08T11:42:47;101526.11;;;10.90;61.03
77603;BME280;66771;52.434;17.056;2023-04-08T11:45:15;101527.14;;;10.83;62.12
77603;BME280;66771;52.434;17.056;2023-04-08T11:47:43;101527.63;;;10.78;64.30
77603;BME280;66771;52.434;17.056;2023-04-08T11:50:11;101527.41;;;10.87;63.63
77603;BME280;66771;52.434;17.056;2023-04-08T11:55:09;101525.06;;;11.23;63.56
77603;BME280;66771;52.434;17.056;2023-04-08T11:57:38;101527.67;;;11.37;63.61
77603;BME280;66771;52.434;17.056;2023-04-08T12:00:05;101528.95;;;11.70;59.53
77603;BME280;66771;52.434;17.056;2023-04-08T12:02:37;101521.33;;;12.10;57.28
77603;BME280;66771;52.434;17.056;2023-04-08T12:05:04;101521.20;;;12.30;59.73
77603;BME280;66771;52.434;17.056;2023-04-08T12:07:31;101520.27;;;12.48;60.90
77603;BME280;66771;52.434;17.056;2023-04-08T12:09:57;101524.25;;;12.63;58.44
77603;BME280;66771;52.434;17.056;2023-04-08T12:12:24;101524.73;;;13.23;59.02
77603;BME280;66771;52.434;17.056;2023-04-08T12:14:51;101524.05;;;13.80;56.24
77603;BME280;66771;52.434;17.056;2023-04-08T12:17:18;101513.21;;;13.73;55.20
77603;BME280;66771;52.434;17.056;2023-04-08T12:19:45;101515.73;;;13.78;53.59
77603;BME280;66771;52.434;17.056;2023-04-08T12:22:12;101513.72;;;13.74;53.45
77603;BME280;66771;52.434;17.056;2023-04-08T12:24:39;101509.17;;;13.74;52.16
77603;BME280;66771;52.434;17.056;2023-04-08T12:27:05;101508.52;;;13.78;53.02
77603;BME280;66771;52.434;17.056;2023-04-08T12:29:32;101510.45;;;13.76;54.71
77603;BME280;66771;52.434;17.056;2023-04-08T12:31:59;101504.88;;;13.85;54.86
77603;BME280;66771;52.434;17.056;2023-04-08T12:34:25;101508.76;;;13.93;54.90
77603;BME280;66771;52.434;17.056;2023-04-08T12:36:52;101512.56;;;14.16;57.03
77603;BME280;66771;52.434;17.056;2023-04-08T12:39:19;101510.27;;;14.13;55.51
77603;BME280;66771;52.434;17.056;2023-04-08T12:41:46;101512.34;;;13.98;55.56
77603;BME280;66771;52.434;17.056;2023-04-08T12:44:13;101511.65;;;13.88;54.90
77603;BME280;66771;52.434;17.056;2023-04-08T12:46:40;101512.55;;;14.25;56.70
77603;BME280;66771;52.434;17.056;2023-04-08T12:49:06;101510.27;;;14.22;55.50
77603;BME280;66771;52.434;17.056;2023-04-08T12:51:34;101515.05;;;13.98;55.87
77603;BME280;66771;52.434;17.056;2023-04-08T12:54:01;101512.19;;;13.70;55.58
77603;BME280;66771;52.434;17.056;2023-04-08T12:56:30;101507.33;;;13.46;55.40
77603;BME280;66771;52.434;17.056;2023-04-08T12:58:58;101510.55;;;13.30;55.57
77603;BME280;66771;52.434;17.056;2023-04-08T13:01:24;101504.61;;;13.29;55.83
77603;BME280;66771;52.434;17.056;2023-04-08T13:03:51;101504.49;;;13.35;55.90
77603;BME280;66771;52.434;17.056;2023-04-08T13:06:18;101500.42;;;13.56;56.85
77603;BME280;66771;52.434;17.056;2023-04-08T13:08:45;101507.42;;;13.65;55.96
77603;BME280;66771;52.434;17.056;2023-04-08T13:11:12;101503.94;;;13.52;55.41
77603;BME280;66771;52.434;17.056;2023-04-08T13:13:39;101509.38;;;13.20;54.97